Time;durP1;ratioP1;P1;durP2;ratioP2;P2;SDS_P1;SDS_P2;PMS_P1;PMS_P2;Temp;Humidity;BMP_temperature;BMP_pressure;BME280_temperature;BME280_humidity;BME280_pressure;Samples;Min_cycle;Max_cycle;Signal;HPM_P1;HPM_P2
2022/12/02 00:00:19;;;;;;;35.33;20.73;;;3.30;99.90;;;;;;5076897;28;20204;-73
2022/12/02 00:02:46;;;;;;;31.00;20.33;;;3.30;99.90;;;;;;5076347;28;20201;-73
2022/12/02 00:05:27;;;;;;;29.40;20.27;;;3.30;99.90;;;;;;5076610;28;20709;-73
2022/12/02 00:07:55;;;;;;;30.93;20.57;;;3.40;99.90;;;;;;5076717;28;20236;-73
2022/12/02 00:10:24;;;;;;;36.90;21.57;;;3.40;99.90;;;;;;5076769;28;20271;-73
2022/12/02 00:12:51;;;;;;;35.50;20.80;;;3.40;99.90;;;;;;5077093;28;20198;-73
2022/12/02 00:15:37;;;;;;;35.53;21.90;;;3.40;99.90;;;;;;5077300;28;20200;-73
2022/12/02 00:18:03;;;;;;;38.27;22.40;;;3.40;99.90;;;;;;5077205;28;20278;-73
2022/12/02 00:20:31;;;;;;;37.23;22.27;;;3.30;99.90;;;;;;5076423;28;20229;-73
2022/12/02 00:22:58;;;;;;;35.00;22.03;;;3.40;99.90;;;;;;5076286;28;20246;-73
2022/12/02 00:25:24;;;;;;;30.87;21.17;;;3.30;99.90;;;;;;5076028;28;20650;-73
2022/12/02 00:27:51;;;;;;;34.60;22.27;;;3.30;99.90;;;;;;5076334;28;20203;-73
2022/12/02 00:30:18;;;;;;;39.10;23.70;;;3.30;99.90;;;;;;5076934;28;20273;-73
2022/12/02 00:32:44;;;;;;;38.13;25.07;;;3.30;99.90;;;;;;5077639;28;20205;-72
2022/12/02 00:35:11;;;;;;;35.57;23.93;;;3.30;99.90;;;;;;5077473;28;20195;-73
2022/12/02 00:37:39;;;;;;;36.87;23.47;;;3.30;99.90;;;;;;5080639;28;20752;-73
2022/12/02 00:40:07;;;;;;;42.23;24.33;;;3.30;99.90;;;;;;5082601;28;20226;-73
2022/12/02 00:42:33;;;;;;;41.90;25.73;;;3.30;99.90;;;;;;5081334;28;20425;-73
2022/12/02 00:47:44;;;;;;;41.03;25.70;;;3.30;99.90;;;;;;5083976;28;20203;-73
2022/12/02 00:50:11;;;;;;;40.17;24.63;;;3.30;99.90;;;;;;5082598;28;20336;-73
2022/12/02 00:52:39;;;;;;;42.63;25.13;;;3.30;99.90;;;;;;5081800;28;20195;-73
2022/12/02 00:55:07;;;;;;;39.37;25.97;;;3.30;99.90;;;;;;5083163;28;20268;-73
2022/12/02 00:57:34;;;;;;;39.83;25.10;;;3.30;99.90;;;;;;5082134;28;20230;-73
2022/12/02 01:00:00;;;;;;;40.50;25.80;;;3.30;99.90;;;;;;5076038;28;20267;-73
2022/12/02 01:02:27;;;;;;;39.00;24.77;;;3.30;99.90;;;;;;5079093;28;20208;-73
2022/12/02 01:04:54;;;;;;;39.93;25.50;;;3.30;99.90;;;;;;5078125;28;20201;-73
2022/12/02 01:07:20;;;;;;;37.33;23.80;;;3.30;99.90;;;;;;5081067;28;20235;-73
2022/12/02 01:09:48;;;;;;;40.67;24.00;;;3.30;99.90;;;;;;5079537;28;20201;-73
2022/12/02 01:12:15;;;;;;;38.43;24.43;;;3.30;99.90;;;;;;5076276;28;20195;-73
2022/12/02 01:14:42;;;;;;;42.17;25.07;;;3.30;99.90;;;;;;5075387;28;20197;-73
2022/12/02 01:17:09;;;;;;;42.53;25.10;;;3.30;99.90;;;;;;5074733;28;20653;-73
2022/12/02 01:19:35;;;;;;;36.60;22.43;;;3.30;99.90;;;;;;5074681;28;20254;-73
2022/12/02 01:22:02;;;;;;;37.53;23.53;;;3.30;99.90;;;;;;5074769;28;20197;-73
2022/12/02 01:24:28;;;;;;;36.70;24.10;;;3.30;99.90;;;;;;5074472;28;20196;-73
2022/12/02 01:26:56;;;;;;;40.50;24.90;;;3.30;99.90;;;;;;5074641;28;20254;-73
2022/12/02 01:29:23;;;;;;;36.73;24.07;;;3.20;99.90;;;;;;5074353;28;20662;-73
2022/12/02 01:31:50;;;;;;;37.30;23.67;;;3.20;99.90;;;;;;5074417;28;20293;-72
2022/12/02 01:34:16;;;;;;;39.60;24.13;;;3.20;99.90;;;;;;5074455;28;20204;-72
2022/12/02 01:36:43;;;;;;;38.47;22.97;;;3.20;99.90;;;;;;5074984;28;20706;-73
2022/12/02 01:39:10;;;;;;;36.90;24.47;;;3.20;99.90;;;;;;5074822;28;20230;-73
2022/12/02 01:41:36;;;;;;;40.97;24.93;;;3.20;99.90;;;;;;5074621;28;20255;-73
2022/12/02 01:44:04;;;;;;;40.03;24.77;;;3.30;99.90;;;;;;5074509;28;20664;-73
2022/12/02 01:46:31;;;;;;;40.27;25.80;;;3.20;99.90;;;;;;5074298;28;20200;-72
2022/12/02 01:48:58;;;;;;;44.03;25.53;;;3.20;99.90;;;;;;5074399;28;20653;-72
2022/12/02 01:51:24;;;;;;;42.23;25.87;;;3.20;99.90;;;;;;5075524;28;20257;-73
2022/12/02 01:53:51;;;;;;;43.30;25.97;;;3.20;99.90;;;;;;5076309;28;20200;-73
2022/12/02 01:56:17;;;;;;;39.93;25.47;;;3.20;99.90;;;;;;5076116;28;20714;-73
2022/12/02 01:58:44;;;;;;;42.87;25.70;;;3.20;99.90;;;;;;5075958;28;20220;-73
2022/12/02 02:01:27;;;;;;;42.70;27.00;;;3.20;99.90;;;;;;5076022;28;20243;-73
2022/12/02 02:03:54;;;;;;;45.77;26.30;;;3.20;99.90;;;;;;5075413;28;20200;-73
2022/12/02 02:06:21;;;;;;;42.30;27.00;;;3.20;99.90;;;;;;5078388;28;20344;-73
2022/12/02 02:08:47;;;;;;;41.07;26.07;;;3.20;99.90;;;;;;5079450;28;20258;-73
2022/12/02 02:11:15;;;;;;;47.43;27.80;;;3.20;99.90;;;;;;5078730;28;20201;-72
2022/12/02 02:13:42;;;;;;;39.60;25.47;;;3.20;99.90;;;;;;5077116;28;20199;-73
2022/12/02 02:16:08;;;;;;;45.47;27.37;;;3.20;99.90;;;;;;5075393;28;20195;-73
2022/12/02 02:18:36;;;;;;;41.57;25.97;;;3.20;99.90;;;;;;5075926;28;20228;-73
2022/12/02 02:21:03;;;;;;;42.53;26.23;;;3.20;99.90;;;;;;5076543;28;20254;-73
2022/12/02 02:23:31;;;;;;;43.53;25.57;;;3.20;99.90;;;;;;5076395;28;20205;-73
2022/12/02 02:25:59;;;;;;;45.77;25.80;;;3.10;99.90;;;;;;5076230;28;20253;-73
2022/12/02 02:28:27;;;;;;;41.77;25.00;;;3.10;99.90;;;;;;5076510;28;20533;-73
2022/12/02 02:30:56;;;;;;;44.17;26.27;;;3.10;99.90;;;;;;5075220;28;20203;-73
2022/12/02 02:33:25;;;;;;;42.47;25.67;;;3.10;99.90;;;;;;5074097;28;20205;-73
2022/12/02 02:35:52;;;;;;;40.27;25.27;;;3.10;99.90;;;;;;5073764;28;20201;-74
2022/12/02 02:38:22;;;;;;;44.60;26.07;;;3.10;99.90;;;;;;5073872;28;20222;-72
2022/12/02 02:40:51;;;;;;;39.67;25.07;;;3.10;99.90;;;;;;5074117;28;20195;-72
2022/12/02 02:43:19;;;;;;;42.23;25.00;;;3.10;99.90;;;;;;5073623;28;20564;-72
2022/12/02 02:45:47;;;;;;;40.30;26.53;;;3.10;99.90;;;;;;5073931;28;20605;-73
2022/12/02 02:48:15;;;;;;;43.03;26.97;;;3.10;99.90;;;;;;5073396;28;20208;-72
2022/12/02 02:50:44;;;;;;;45.07;27.00;;;3.10;99.90;;;;;;5073641;28;20246;-72
2022/12/02 02:53:12;;;;;;;42.93;24.70;;;3.10;99.90;;;;;;5073607;28;20247;-72
2022/12/02 02:55:39;;;;;;;41.67;25.77;;;3.10;99.90;;;;;;5073512;28;20202;-72
2022/12/02 02:58:16;;;;;;;45.50;27.03;;;3.00;99.90;;;;;;5073289;28;20217;-72
2022/12/02 03:00:47;;;;;;;44.80;25.77;;;3.00;99.90;;;;;;5073751;28;20198;-72
2022/12/02 03:03:16;;;;;;;45.37;27.10;;;3.00;99.90;;;;;;5073325;28;20203;-73
2022/12/02 03:05:43;;;;;;;45.27;26.90;;;3.00;99.90;;;;;;5073181;28;20202;-72
2022/12/02 03:08:10;;;;;;;45.53;26.70;;;3.00;99.90;;;;;;5073037;28;20230;-72
2022/12/02 03:10:37;;;;;;;42.40;25.57;;;3.00;99.90;;;;;;5073057;28;20254;-72
2022/12/02 03:13:04;;;;;;;46.57;26.90;;;3.00;99.90;;;;;;5073470;28;20264;-72
2022/12/02 03:15:33;;;;;;;42.87;26.27;;;3.00;99.90;;;;;;5073163;28;20735;-72
2022/12/02 03:17:59;;;;;;;43.77;25.73;;;2.90;99.90;;;;;;5073197;28;20195;-72
2022/12/02 03:20:26;;;;;;;44.80;26.93;;;2.90;99.90;;;;;;5073225;28;20197;-72
2022/12/02 03:22:53;;;;;;;46.03;25.53;;;2.90;99.90;;;;;;5075253;28;20194;-72
2022/12/02 03:25:20;;;;;;;40.40;24.83;;;2.90;99.90;;;;;;5077006;28;20207;-72
2022/12/02 03:27:47;;;;;;;42.77;26.33;;;2.90;99.90;;;;;;5077168;28;20201;-72
2022/12/02 03:30:14;;;;;;;46.20;25.87;;;2.90;99.90;;;;;;5077148;28;20210;-72
2022/12/02 03:32:42;;;;;;;42.60;24.83;;;2.90;99.90;;;;;;5077099;28;20198;-73
2022/12/02 03:35:09;;;;;;;41.20;24.73;;;2.90;99.90;;;;;;5076872;28;20199;-72
2022/12/02 03:37:36;;;;;;;43.77;24.97;;;2.80;99.90;;;;;;5077066;28;20636;-72
2022/12/02 03:40:02;;;;;;;41.80;24.93;;;2.90;99.90;;;;;;5076877;28;20247;-72
2022/12/02 03:42:29;;;;;;;39.67;24.03;;;2.90;99.90;;;;;;5076908;28;20417;-72
2022/12/02 03:44:56;;;;;;;41.43;24.30;;;2.80;99.90;;;;;;5076953;28;20195;-72
2022/12/02 03:47:23;;;;;;;40.67;24.63;;;2.80;99.90;;;;;;5076916;28;20248;-72
2022/12/02 03:49:51;;;;;;;43.00;26.00;;;2.90;99.90;;;;;;5076824;28;20653;-72
2022/12/02 03:52:17;;;;;;;42.17;24.67;;;2.80;99.90;;;;;;5076641;28;20282;-72
2022/12/02 03:54:44;;;;;;;40.33;23.63;;;2.80;99.90;;;;;;5076646;28;20202;-73
2022/12/02 03:57:11;;;;;;;43.57;25.53;;;2.80;99.90;;;;;;5076327;28;20197;-72
2022/12/02 03:59:38;;;;;;;41.37;23.53;;;2.80;99.90;;;;;;5076442;28;20233;-72
2022/12/02 04:02:04;;;;;;;39.17;23.67;;;2.80;99.90;;;;;;5076491;28;20267;-73
2022/12/02 04:04:32;;;;;;;41.67;24.60;;;2.70;99.90;;;;;;5076189;28;20205;-72
2022/12/02 04:07:00;;;;;;;42.47;24.90;;;2.70;99.90;;;;;;5076054;28;20637;-72
2022/12/02 04:09:27;;;;;;;41.07;22.67;;;2.80;99.90;;;;;;5076567;28;20197;-72
2022/12/02 04:11:53;;;;;;;39.43;22.93;;;2.70;99.90;;;;;;5076186;28;20602;-72
2022/12/02 04:14:20;;;;;;;36.87;23.50;;;2.70;99.90;;;;;;5076399;28;20250;-72
2022/12/02 04:16:47;;;;;;;36.87;21.20;;;2.70;99.90;;;;;;5076644;28;20607;-72
2022/12/02 04:19:14;;;;;;;37.30;21.50;;;2.70;99.90;;;;;;5076501;28;20256;-72
2022/12/02 04:21:41;;;;;;;32.83;20.10;;;2.60;99.90;;;;;;5075985;28;20199;-72
2022/12/02 04:24:09;;;;;;;33.30;19.80;;;2.60;99.90;;;;;;5076232;28;20702;-74
2022/12/02 04:26:35;;;;;;;37.70;20.57;;;2.60;99.90;;;;;;5075754;28;20250;-73
2022/12/02 04:29:02;;;;;;;33.57;19.67;;;2.60;99.90;;;;;;5076020;28;20201;-72
2022/12/02 04:31:29;;;;;;;35.80;20.80;;;2.50;99.90;;;;;;5075789;28;20673;-72
2022/12/02 04:33:55;;;;;;;31.70;19.97;;;2.60;99.90;;;;;;5074216;28;20711;-72
2022/12/02 04:36:22;;;;;;;33.10;20.57;;;2.50;99.90;;;;;;5075694;28;20251;-74
2022/12/02 04:38:48;;;;;;;40.43;21.57;;;2.50;99.90;;;;;;5075593;28;20221;-74
2022/12/02 04:41:16;;;;;;;40.93;22.13;;;2.50;99.90;;;;;;5075514;28;20209;-73
2022/12/02 04:43:43;;;;;;;38.27;21.53;;;2.50;99.90;;;;;;5075705;28;20246;-73
2022/12/02 04:46:10;;;;;;;42.23;23.37;;;2.50;99.90;;;;;;5075543;28;20250;-73
2022/12/02 04:48:36;;;;;;;44.20;24.47;;;2.50;99.90;;;;;;5075721;28;20231;-73
2022/12/02 04:51:03;;;;;;;49.87;24.77;;;2.50;99.90;;;;;;5075535;28;20252;-73
2022/12/02 04:53:30;;;;;;;47.97;26.67;;;2.50;99.90;;;;;;5075419;28;20715;-73
2022/12/02 04:55:56;;;;;;;49.47;25.97;;;2.50;99.90;;;;;;5075278;28;20599;-73
2022/12/02 04:58:24;;;;;;;56.20;27.27;;;2.50;99.90;;;;;;5075250;28;20246;-73
2022/12/02 05:00:51;;;;;;;48.17;26.07;;;2.50;99.90;;;;;;5075308;28;20246;-73
2022/12/02 05:03:17;;;;;;;49.77;26.17;;;2.50;99.90;;;;;;5075675;28;20202;-73
2022/12/02 05:05:44;;;;;;;54.73;28.60;;;2.50;99.90;;;;;;5075471;28;20203;-73
2022/12/02 05:08:11;;;;;;;50.90;27.90;;;2.50;99.90;;;;;;5075401;28;20228;-73
2022/12/02 05:10:37;;;;;;;51.27;28.07;;;2.50;99.90;;;;;;5076123;28;20708;-73
2022/12/02 05:13:04;;;;;;;54.00;28.73;;;2.50;99.90;;;;;;5076421;28;20713;-73
2022/12/02 05:15:32;;;;;;;53.87;28.53;;;2.50;99.90;;;;;;5075132;28;20201;-72
2022/12/02 05:17:59;;;;;;;53.20;26.13;;;2.50;99.90;;;;;;5075535;28;20677;-73
2022/12/02 05:20:25;;;;;;;53.70;28.57;;;2.40;99.90;;;;;;5075754;28;20279;-72
2022/12/02 05:22:52;;;;;;;47.70;27.20;;;2.50;99.90;;;;;;5075182;28;20204;-72
2022/12/02 05:25:19;;;;;;;50.33;28.47;;;2.50;99.90;;;;;;5075092;28;20198;-72
2022/12/02 05:27:45;;;;;;;57.87;29.93;;;2.50;99.90;;;;;;5074875;28;20208;-72
2022/12/02 05:30:13;;;;;;;51.80;28.00;;;2.50;99.90;;;;;;5074501;28;20205;-72
2022/12/02 05:32:41;;;;;;;52.00;28.57;;;2.50;99.90;;;;;;5074882;28;20193;-72
2022/12/02 05:35:08;;;;;;;55.67;28.47;;;2.50;99.90;;;;;;5074791;28;20198;-72
2022/12/02 05:37:34;;;;;;;54.03;29.67;;;2.50;99.90;;;;;;5074824;28;20202;-73
2022/12/02 05:40:02;;;;;;;51.00;27.50;;;2.50;99.90;;;;;;5074726;28;20220;-73
2022/12/02 05:42:29;;;;;;;49.53;27.40;;;2.50;99.90;;;;;;5074541;28;20721;-73
2022/12/02 05:44:59;;;;;;;53.20;28.40;;;2.50;99.90;;;;;;5074183;28;20200;-72
2022/12/02 05:47:29;;;;;;;51.93;27.27;;;2.50;99.90;;;;;;5074995;28;20197;-73
2022/12/02 05:49:58;;;;;;;50.57;27.93;;;2.50;99.90;;;;;;5074958;28;20608;-72
2022/12/02 05:52:27;;;;;;;51.43;28.43;;;2.50;99.90;;;;;;5075268;28;20224;-73
2022/12/02 05:54:56;;;;;;;56.63;29.13;;;2.40;99.90;;;;;;5074674;28;20194;-72
2022/12/02 05:57:25;;;;;;;46.37;27.00;;;2.40;99.90;;;;;;5075135;28;20596;-72
2022/12/02 05:59:57;;;;;;;54.17;29.10;;;2.40;99.90;;;;;;5074833;28;20225;-72
2022/12/02 06:02:29;;;;;;;53.37;28.57;;;2.40;99.90;;;;;;5074406;28;20250;-72
2022/12/02 06:04:57;;;;;;;46.33;26.87;;;2.40;99.90;;;;;;5074519;28;20247;-72
2022/12/02 06:07:23;;;;;;;50.80;27.10;;;2.40;99.90;;;;;;5074793;28;20565;-73
2022/12/02 06:09:52;;;;;;;49.77;27.07;;;2.40;99.90;;;;;;5074519;28;20197;-72
2022/12/02 06:12:20;;;;;;;49.20;27.37;;;2.40;99.90;;;;;;5076224;28;20571;-72
2022/12/02 06:14:51;;;;;;;51.53;27.43;;;2.40;99.90;;;;;;5075819;28;20202;-73
2022/12/02 06:17:18;;;;;;;51.30;26.90;;;2.40;99.90;;;;;;5074088;28;20193;-73
2022/12/02 06:19:50;;;;;;;52.77;27.87;;;2.40;99.90;;;;;;5073887;28;20220;-73
2022/12/02 06:22:22;;;;;;;57.77;29.17;;;2.40;99.90;;;;;;5073697;28;20246;-73
2022/12/02 06:24:49;;;;;;;50.10;26.80;;;2.40;99.90;;;;;;5073920;28;20200;-73
2022/12/02 06:27:17;;;;;;;45.33;26.67;;;2.40;99.90;;;;;;5073887;28;20205;-73
2022/12/02 06:29:49;;;;;;;48.63;26.70;;;2.40;99.90;;;;;;5073918;28;20220;-73
2022/12/02 06:32:19;;;;;;;45.57;25.80;;;2.40;99.90;;;;;;5073763;28;20254;-73
2022/12/02 06:34:49;;;;;;;53.80;28.77;;;2.40;99.90;;;;;;5073507;28;20657;-72
2022/12/02 06:37:18;;;;;;;49.03;27.10;;;2.30;99.90;;;;;;5073861;28;20228;-73
2022/12/02 06:39:49;;;;;;;55.17;29.63;;;2.30;99.90;;;;;;5073510;28;20229;-73
2022/12/02 06:42:21;;;;;;;47.77;27.17;;;2.30;99.90;;;;;;5074036;28;20201;-72
2022/12/02 06:45:07;;;;;;;52.13;28.23;;;2.30;99.90;;;;;;5073970;28;20533;-74
2022/12/02 06:48:00;;;;;;;46.87;26.80;;;2.30;99.90;;;;;;5074149;28;20304;-73
2022/12/02 06:50:31;;;;;;;51.67;27.13;;;2.30;99.90;;;;;;5074308;28;20606;-74
2022/12/02 06:53:10;;;;;;;48.47;27.77;;;2.30;99.90;;;;;;5074412;28;20193;-75
2022/12/02 06:55:39;;;;;;;47.77;26.47;;;2.30;99.90;;;;;;5074853;28;20197;-72
2022/12/02 06:58:25;;;;;;;51.57;27.53;;;2.20;99.90;;;;;;5077527;28;20204;-73
2022/12/02 07:00:52;;;;;;;47.97;25.10;;;2.30;99.90;;;;;;5077842;28;20224;-73
2022/12/02 07:03:29;;;;;;;46.37;26.37;;;2.30;99.90;;;;;;5077980;28;20652;-73
2022/12/02 07:05:58;;;;;;;50.23;28.00;;;2.30;99.90;;;;;;5078215;28;20257;-72
2022/12/02 07:08:26;;;;;;;51.60;26.90;;;2.20;99.90;;;;;;5078593;28;20228;-74
2022/12/02 07:10:54;;;;;;;50.27;27.50;;;2.20;99.90;;;;;;5077511;28;20246;-73
2022/12/02 07:13:21;;;;;;;45.07;25.60;;;2.20;99.90;;;;;;5077651;28;20196;-73
2022/12/02 07:15:48;;;;;;;44.67;24.77;;;2.20;99.90;;;;;;5077337;28;20197;-73
2022/12/02 07:18:19;;;;;;;43.70;24.77;;;2.20;99.90;;;;;;5077171;28;20256;-73
2022/12/02 07:20:47;;;;;;;48.27;25.17;;;2.20;99.90;;;;;;5076842;28;20228;-73
2022/12/02 07:23:18;;;;;;;45.30;25.90;;;2.10;99.90;;;;;;5077045;28;20607;-73
2022/12/02 07:25:47;;;;;;;47.90;25.00;;;2.20;99.90;;;;;;5077204;28;20250;-73
2022/12/02 07:28:24;;;;;;;46.23;24.13;;;2.20;99.90;;;;;;5077163;28;20204;-73
2022/12/02 07:30:56;;;;;;;50.67;26.37;;;2.20;99.90;;;;;;5076915;28;20258;-73
2022/12/02 07:33:23;;;;;;;47.40;25.43;;;2.10;99.90;;;;;;5077077;28;20223;-73
2022/12/02 07:35:50;;;;;;;45.13;23.97;;;2.10;99.90;;;;;;5080669;28;20251;-73
2022/12/02 07:38:16;;;;;;;41.70;23.97;;;2.10;99.90;;;;;;5083756;28;20204;-73
2022/12/02 07:40:43;;;;;;;46.93;24.60;;;2.10;99.90;;;;;;5083768;28;20769;-73
2022/12/02 07:43:10;;;;;;;44.13;24.53;;;2.10;99.90;;;;;;5080507;28;20205;-73
2022/12/02 07:45:38;;;;;;;41.80;24.60;;;2.10;99.90;;;;;;5077577;28;20197;-73
2022/12/02 07:48:05;;;;;;;37.90;22.60;;;2.10;99.90;;;;;;5077204;28;20205;-74
2022/12/02 07:50:32;;;;;;;40.77;22.33;;;2.10;99.90;;;;;;5076758;28;20197;-73
2022/12/02 07:52:58;;;;;;;39.40;23.20;;;2.10;99.90;;;;;;5076590;28;20198;-74
2022/12/02 07:55:25;;;;;;;39.53;23.57;;;2.00;99.90;;;;;;5076561;28;20254;-73
2022/12/02 07:57:52;;;;;;;39.90;22.70;;;2.10;99.90;;;;;;5076347;28;20718;-73
2022/12/02 08:00:20;;;;;;;36.00;21.97;;;2.00;99.90;;;;;;5076298;28;20239;-74
2022/12/02 08:02:48;;;;;;;39.80;22.73;;;2.00;99.90;;;;;;5076584;28;20254;-73
2022/12/02 08:05:14;;;;;;;37.07;21.97;;;2.00;99.90;;;;;;5076803;28;20201;-73
2022/12/02 08:07:42;;;;;;;36.77;20.97;;;2.10;99.90;;;;;;5076087;28;20255;-74
2022/12/02 08:10:09;;;;;;;41.10;22.73;;;2.10;99.90;;;;;;5076331;28;20205;-73
2022/12/02 08:12:37;;;;;;;39.57;21.53;;;2.10;99.90;;;;;;5076100;28;20206;-73
2022/12/02 08:15:05;;;;;;;38.07;21.57;;;2.10;99.90;;;;;;5076612;28;20295;-73
2022/12/02 08:17:31;;;;;;;33.37;20.97;;;2.10;99.90;;;;;;5076883;28;20247;-73
2022/12/02 08:19:59;;;;;;;38.10;21.07;;;2.10;99.90;;;;;;5076590;28;20278;-73
2022/12/02 08:22:26;;;;;;;36.47;20.23;;;2.10;99.90;;;;;;5076676;28;20274;-73
2022/12/02 08:24:54;;;;;;;34.07;20.50;;;2.10;99.90;;;;;;5076758;28;20201;-73
2022/12/02 08:27:21;;;;;;;31.37;19.57;;;2.20;99.90;;;;;;5076605;28;20203;-73
2022/12/02 08:29:48;;;;;;;32.73;19.30;;;2.20;99.90;;;;;;5076706;28;20254;-73
2022/12/02 08:32:15;;;;;;;32.43;19.73;;;2.20;99.90;;;;;;5076208;28;20229;-73
2022/12/02 08:34:42;;;;;;;33.63;19.83;;;2.10;99.90;;;;;;5075794;28;20200;-73
2022/12/02 08:37:10;;;;;;;33.63;19.77;;;2.10;99.90;;;;;;5075533;28;20250;-73
2022/12/02 08:39:37;;;;;;;33.97;21.53;;;2.20;99.90;;;;;;5075467;28;20285;-73
2022/12/02 08:42:04;;;;;;;35.37;20.63;;;2.20;99.90;;;;;;5075699;28;20255;-73
2022/12/02 08:44:31;;;;;;;34.13;20.83;;;2.30;99.90;;;;;;5075737;28;20201;-73
2022/12/02 08:46:58;;;;;;;34.30;21.13;;;2.30;99.90;;;;;;5075846;28;20210;-73
2022/12/02 08:49:25;;;;;;;37.13;22.17;;;2.30;99.90;;;;;;5075515;28;20199;-73
2022/12/02 08:51:52;;;;;;;38.87;21.80;;;2.20;99.90;;;;;;5075880;28;20205;-72
2022/12/02 08:54:20;;;;;;;37.67;22.37;;;2.30;99.90;;;;;;5075694;28;20248;-73
2022/12/02 08:56:48;;;;;;;38.33;23.00;;;2.30;99.90;;;;;;5076223;28;20247;-72
2022/12/02 08:59:15;;;;;;;36.13;22.37;;;2.30;99.90;;;;;;5075509;28;20226;-72
2022/12/02 09:01:42;;;;;;;38.37;21.60;;;2.30;99.90;;;;;;5076430;28;20725;-74
2022/12/02 09:04:09;;;;;;;36.17;22.33;;;2.30;99.90;;;;;;5077538;28;20201;-72
2022/12/02 09:06:36;;;;;;;36.70;22.33;;;2.30;99.90;;;;;;5076304;28;20228;-72
2022/12/02 09:09:03;;;;;;;37.47;21.40;;;2.30;99.90;;;;;;5075932;28;20193;-71
2022/12/02 09:11:31;;;;;;;41.73;21.80;;;2.30;99.90;;;;;;5076281;28;20198;-74
2022/12/02 09:13:57;;;;;;;48.73;23.37;;;2.30;99.90;;;;;;5076374;28;20197;-72
2022/12/02 09:16:24;;;;;;;37.57;21.07;;;2.30;99.90;;;;;;5075276;28;20201;-74
2022/12/02 09:18:50;;;;;;;35.07;20.53;;;2.30;99.90;;;;;;5076550;28;20263;-72
2022/12/02 09:21:17;;;;;;;32.50;20.37;;;2.40;99.90;;;;;;5075432;28;20263;-73
2022/12/02 09:23:44;;;;;;;36.67;21.47;;;2.40;99.90;;;;;;5077246;28;20254;-75
2022/12/02 09:26:10;;;;;;;35.33;21.57;;;2.40;99.90;;;;;;5079552;28;20198;-72
2022/12/02 09:28:38;;;;;;;35.33;21.23;;;2.50;99.90;;;;;;5075725;28;20207;-71
2022/12/02 09:31:05;;;;;;;36.97;20.37;;;2.50;99.90;;;;;;5076678;28;20259;-72
2022/12/02 09:33:32;;;;;;;33.90;19.87;;;2.50;99.90;;;;;;5074871;28;20197;-71
2022/12/02 09:35:58;;;;;;;37.43;21.00;;;2.50;99.90;;;;;;5074514;28;20193;-72
2022/12/02 09:38:29;;;;;;;36.33;21.63;;;2.60;99.90;;;;;;5075288;28;20243;-72
2022/12/02 09:40:56;;;;;;;34.50;20.33;;;2.60;99.90;;;;;;5074722;28;20695;-72
2022/12/02 09:43:23;;;;;;;33.90;19.57;;;2.60;99.90;;;;;;5074543;28;20198;-72
2022/12/02 09:45:51;;;;;;;34.50;20.20;;;2.70;99.90;;;;;;5074633;28;20197;-73
2022/12/02 09:48:18;;;;;;;34.10;19.70;;;2.60;99.90;;;;;;5074608;28;20194;-72
2022/12/02 09:50:44;;;;;;;38.60;22.30;;;2.60;99.90;;;;;;5074943;28;20223;-72
2022/12/02 09:53:14;;;;;;;33.00;20.03;;;2.70;99.90;;;;;;5075381;28;20227;-72
2022/12/02 09:55:40;;;;;;;33.93;21.43;;;2.60;99.90;;;;;;5074635;28;20197;-73
2022/12/02 09:58:15;;;;;;;37.63;21.00;;;2.50;99.90;;;;;;5074402;28;20239;-72
2022/12/02 10:00:42;;;;;;;32.63;19.97;;;2.60;99.90;;;;;;5074143;28;20220;-72
2022/12/02 10:03:13;;;;;;;33.57;20.60;;;2.60;99.90;;;;;;5074282;28;20725;-72
2022/12/02 10:05:39;;;;;;;33.53;20.57;;;2.60;99.90;;;;;;5074672;28;20675;-72
2022/12/02 10:08:12;;;;;;;33.43;20.53;;;2.60;99.90;;;;;;5074582;28;20256;-72
2022/12/02 10:10:42;;;;;;;34.33;20.67;;;2.60;99.90;;;;;;5074881;28;20197;-72
2022/12/02 10:13:12;;;;;;;41.27;22.23;;;2.60;99.90;;;;;;5074137;28;20753;-72
2022/12/02 10:15:39;;;;;;;38.57;22.40;;;2.60;99.90;;;;;;5074066;28;20683;-72
2022/12/02 10:18:13;;;;;;;36.20;22.47;;;2.60;99.90;;;;;;5073997;28;20243;-71
2022/12/02 10:20:39;;;;;;;38.30;23.33;;;2.60;99.90;;;;;;5073964;28;20221;-73
2022/12/02 10:23:13;;;;;;;36.60;22.03;;;2.60;99.90;;;;;;5073630;28;20576;-72
2022/12/02 10:25:42;;;;;;;43.90;24.07;;;2.60;99.90;;;;;;5073755;28;20204;-72
2022/12/02 10:28:20;;;;;;;35.00;21.70;;;2.70;99.90;;;;;;5073889;28;20271;-71
2022/12/02 10:30:53;;;;;;;38.53;22.57;;;2.70;99.90;;;;;;5073965;28;20295;-71
2022/12/02 10:33:26;;;;;;;40.20;23.03;;;2.60;99.90;;;;;;5073666;28;20255;-72
2022/12/02 10:35:54;;;;;;;38.93;21.97;;;2.70;99.90;;;;;;5073844;28;20193;-72
2022/12/02 10:38:34;;;;;;;40.47;22.93;;;2.70;99.90;;;;;;5073562;28;20292;-72
2022/12/02 10:41:18;;;;;;;35.63;22.10;;;2.70;99.90;;;;;;5073636;28;20280;-72
2022/12/02 10:44:00;;;;;;;38.83;23.70;;;2.70;99.90;;;;;;5073654;28;20248;-72
2022/12/02 10:46:26;;;;;;;36.77;22.53;;;2.70;99.90;;;;;;5073487;28;20204;-73
2022/12/02 10:48:55;;;;;;;35.57;21.63;;;2.70;99.90;;;;;;5073859;28;20266;-71
2022/12/02 10:51:22;;;;;;;35.67;21.80;;;2.70;99.90;;;;;;5074125;28;20200;-72
2022/12/02 10:53:51;;;;;;;35.47;22.20;;;2.70;99.90;;;;;;5074166;28;20251;-71
2022/12/02 10:56:20;;;;;;;44.00;24.07;;;2.70;99.90;;;;;;5073830;28;20197;-73
2022/12/02 10:58:49;;;;;;;41.27;23.70;;;2.70;99.90;;;;;;5073403;28;20203;-73
2022/12/02 11:01:18;;;;;;;46.63;24.67;;;2.60;99.90;;;;;;5073152;28;20216;-72
2022/12/02 11:03:44;;;;;;;50.07;26.60;;;2.70;99.90;;;;;;5073322;28;20284;-71
2022/12/02 11:06:15;;;;;;;51.93;27.00;;;2.70;99.90;;;;;;5073257;28;20200;-73
2022/12/02 11:08:43;;;;;;;46.80;26.33;;;2.70;99.90;;;;;;5073307;28;20204;-73
2022/12/02 11:11:12;;;;;;;55.07;28.57;;;2.70;99.90;;;;;;5073270;28;20202;-73
2022/12/02 11:13:52;;;;;;;64.73;30.13;;;2.70;99.90;;;;;;5073719;28;20197;-72
2022/12/02 11:16:42;;;;;;;58.90;30.53;;;2.70;99.90;;;;;;5073433;28;20637;-72
2022/12/02 11:19:39;;;;;;;62.50;30.30;;;2.70;99.90;;;;;;5073485;28;20204;-74
2022/12/02 11:22:45;;;;;;;58.80;31.23;;;2.60;99.90;;;;;;5073018;28;20247;-71
2022/12/02 11:25:47;;;;;;;60.33;29.87;;;2.60;99.90;;;;;;5073200;28;20251;-72
2022/12/02 11:28:35;;;;;;;60.30;30.60;;;2.70;99.90;;;;;;5073113;28;20306;-73
2022/12/02 11:31:18;;;;;;;59.43;29.63;;;2.70;99.90;;;;;;5073104;28;20206;-73
2022/12/02 11:34:05;;;;;;;61.37;31.03;;;2.70;99.90;;;;;;5073063;28;20201;-72
2022/12/02 11:36:33;;;;;;;60.70;30.17;;;2.80;99.90;;;;;;5072848;28;20549;-73
2022/12/02 11:39:06;;;;;;;64.33;30.53;;;2.80;99.90;;;;;;5072592;28;20204;-72
2022/12/02 11:42:11;;;;;;;58.80;30.43;;;2.80;99.90;;;;;;5072913;28;20231;-72
2022/12/02 11:44:38;;;;;;;63.10;30.47;;;2.70;99.90;;;;;;5060597;28;20292;-73
2022/12/02 11:47:05;;;;;;;57.17;29.43;;;2.70;99.90;;;;;;5076540;28;20193;-72
2022/12/02 11:49:35;;;;;;;60.30;29.87;;;2.70;99.90;;;;;;5076303;28;20205;-73
2022/12/02 11:52:16;;;;;;;55.57;28.90;;;2.70;99.90;;;;;;5076520;28;20202;-72
2022/12/02 11:54:46;;;;;;;56.53;29.93;;;2.80;99.90;;;;;;5076494;28;20193;-72
2022/12/02 11:57:22;;;;;;;54.53;28.17;;;2.70;99.90;;;;;;5076304;28;20219;-72
2022/12/02 11:59:50;;;;;;;58.10;29.57;;;2.70;99.90;;;;;;5076401;28;20363;-72
2022/12/02 12:02:18;;;;;;;64.60;31.83;;;2.70;99.90;;;;;;5076382;28;20286;-72
2022/12/02 12:04:45;;;;;;;62.77;30.13;;;2.70;99.90;;;;;;5076271;28;20227;-73
2022/12/02 12:07:13;;;;;;;57.10;29.80;;;2.70;99.90;;;;;;5076292;28;20237;-73
2022/12/02 12:09:39;;;;;;;57.27;30.80;;;2.70;99.90;;;;;;5076199;28;20199;-72
2022/12/02 12:12:15;;;;;;;57.17;29.53;;;2.80;99.90;;;;;;5075920;28;20255;-72
2022/12/02 12:14:57;;;;;;;60.93;30.57;;;2.70;99.90;;;;;;5076448;28;20247;-72
2022/12/02 12:17:44;;;;;;;58.20;30.37;;;2.80;99.90;;;;;;5075916;28;20254;-71
2022/12/02 12:20:43;;;;;;;58.93;31.10;;;2.70;99.90;;;;;;5075788;28;20197;-72
2022/12/02 12:23:34;;;;;;;58.97;30.90;;;2.70;99.90;;;;;;5075922;28;20205;-71
2022/12/02 12:26:02;;;;;;;61.70;30.73;;;2.80;99.90;;;;;;5075772;28;20207;-72
2022/12/02 12:28:32;;;;;;;64.47;31.80;;;2.80;99.90;;;;;;5075593;28;20205;-71
2022/12/02 12:30:59;;;;;;;62.13;30.27;;;2.70;99.90;;;;;;5075559;28;20560;-71
2022/12/02 12:33:26;;;;;;;63.73;32.23;;;2.80;99.90;;;;;;5075719;28;20202;-72
2022/12/02 12:35:54;;;;;;;65.90;32.33;;;2.70;99.90;;;;;;5075748;28;20203;-72
2022/12/02 12:38:21;;;;;;;58.53;31.40;;;2.70;99.90;;;;;;5075616;28;20196;-71
2022/12/02 12:40:48;;;;;;;62.23;30.80;;;2.70;99.90;;;;;;5075370;28;20201;-72
2022/12/02 12:43:15;;;;;;;56.40;29.97;;;2.70;99.90;;;;;;5075373;28;20272;-72
2022/12/02 12:45:43;;;;;;;63.07;30.87;;;2.70;99.90;;;;;;5075270;28;20206;-73
2022/12/02 12:48:10;;;;;;;58.97;29.80;;;2.80;99.90;;;;;;5075519;28;20645;-72